Home   Weather   Pakistan   Karachi   Past weeks
Flag for Pakistan

Past Weather in Karachi, Sindh, Pakistan — Yesterday and Last 2 Weeks

Currently: 90 °F. Haze. (Weather station: Karachi Airport, Pakistan). See more current weather

Past Weather in Karachi — Graph

°F

Karachi Temperature Yesterday

Maximum temperature yesterday: 93 °F (at 1:55 pm)
Minimum temperature yesterday: 63 °F (at 6:30 am)
Average temperature yesterday: 77 °F

High & Low Weather Summary for the Past Weeks

 TemperatureHumidityPressure
High93 °F (Feb 19, 3:00 pm)94% (Feb 18, 3:55 am)30.09 "Hg (Feb 18, 3:55 am)
Low55 °F (Feb 18, 6:00 am)8% (Feb 19, 3:00 pm)29.77 "Hg (Feb 26, 3:30 pm)
Average76 °F49%29.94 "Hg
* Reported Feb 17 2:25 pm — Mar 4 2:25 pm, Karachi. Weather by CustomWeather, © 2021

Note: Actual official high and low records may vary slightly from our data, if they occured in-between our weather recording intervals... More about our weather records

Karachi Weather History for the Previous 24 Hours

Scroll right to see more
 ConditionsComfort  
Time TempWeatherWind HumidityBarometerVisibility
2:25 pm
Thu, Mar 4
91 °FHaze.7 mph41%29.86 "Hg2 mi
1:55 pm91 °FHaze.10 mph41%29.86 "Hg2 mi
1:25 pm91 °FHaze.8 mph44%29.89 "Hg2 mi
12:55 pm91 °FHaze.6 mph44%29.89 "Hg2 mi
12:25 pm91 °FHaze.3 mph36%29.92 "Hg2 mi
11:55 am90 °FHaze.3 mph36%29.92 "Hg2 mi
11:25 am90 °FHaze.3 mph36%29.92 "Hg2 mi
10:55 am86 °FHaze.No wind49%29.95 "Hg2 mi
10:25 am82 °FHaze.No wind62%29.95 "Hg2 mi
10:00 am81 °FHaze.No wind70%29.95 "Hg2 mi
9:25 am77 °FClear.3 mph74%29.92 "Hg1 mi
8:55 am73 °FClear.5 mph83%29.92 "Hg1 mi
8:25 am72 °FClear.6 mph88%29.92 "Hg2 mi
8:00 am73 °FClear.No wind89%29.92 "Hg2 mi
7:30 am72 °FClear.No wind88%29.89 "Hg2 mi
7:00 am72 °FClear.6 mph88%29.89 "Hg2 mi
6:30 am72 °FClear.5 mph88%29.86 "Hg3 mi
6:00 am72 °FClear.6 mph88%29.86 "Hg3 mi
5:30 am72 °FClear.3 mph88%29.86 "Hg3 mi
4:30 am72 °FClear.5 mph88%29.86 "Hg3 mi
4:00 am72 °FClear.6 mph88%29.86 "Hg3 mi
3:30 am72 °FClear.5 mph88%29.86 "Hg3 mi
3:00 am72 °FClear.6 mph88%29.86 "Hg3 mi
2:30 am72 °FClear.5 mph88%29.89 "Hg3 mi
2:00 am72 °FClear.5 mph88%29.89 "Hg3 mi
1:30 am72 °FClear.7 mph83%29.89 "Hg4 mi
1:00 am72 °FClear.8 mph83%29.89 "Hg4 mi
12:30 am73 °FClear.6 mph78%29.92 "Hg4 mi
12:00 am73 °FClear.7 mph74%29.92 "Hg3 mi
11:30 pm
Wed, Mar 3
73 °FClear.6 mph69%29.92 "Hg3 mi
11:00 pm75 °FClear.6 mph65%29.92 "Hg3 mi
10:30 pm75 °FClear.7 mph65%29.92 "Hg3 mi
10:00 pm75 °FClear.9 mph69%29.92 "Hg3 mi
9:25 pm75 °FClear.12 mph74%29.92 "Hg2 mi
8:55 pm75 °FHaze.12 mph69%29.92 "Hg2 mi
8:25 pm77 °FHaze.12 mph65%29.89 "Hg2 mi
7:55 pm77 °FHaze.12 mph65%29.89 "Hg2 mi
7:25 pm79 °FHaze.9 mph61%29.89 "Hg2 mi
6:55 pm79 °FHaze.12 mph54%29.86 "Hg2 mi
6:25 pm81 °FHaze.12 mph48%29.86 "Hg2 mi
5:55 pm82 °FHaze.12 mph42%29.86 "Hg2 mi
5:25 pm84 °FHaze.12 mph35%29.86 "Hg3 mi
4:55 pm86 °FClear.14 mph38%29.86 "Hg4 mi
4:30 pm88 °FClear.14 mph35%29.86 "Hg4 mi
3:55 pm90 °FClear.14 mph31%29.86 "Hg4 mi
3:25 pm90 °FClear.13 mph33%29.86 "Hg4 mi
Weather by CustomWeather, © 2021

See weather overview